Bolen Town, South Carolina
Current Conditions -  °F | °C
As of 3:53 PM on Thursday 20 Nov 2014 (Local Time) from KOGB Reporting Station
Clear Clear  
Wind Chill: 63°   Ceiling: Unl
Heat Index: 63°   Visibility: 10mi
Dew Point: 33°   Wind: 15mph
Humidity: 33%   Direction: 240°WSW
Pressure: 30.13"   Gusts: 24mph
Location:  33.4964°N, 80.8317°W
Report Text: KOGB 202053Z AUTO 24013G21KT 10SM CLR 17/01 A3013 RMK AO2 SLP202 60000 T01720006 56014
Loading
Personal Weather Stations






























Interactive Weather Map New forecast layout! Learn more

10-Day Weather Forecast

Advertisements
Track Severe Weather on mobile